sensor_id;sensor_type;location;lat;lon;timestamp;pressure;altitude;pressure_sealevel;temperature;humidity
32237;BME280;18726;44.732;10.550;2023-04-08T00:01:50;101078.66;;;10.41;100.00
32237;BME280;18726;44.732;10.550;2023-04-08T00:04:54;101084.56;;;10.43;100.00
32237;BME280;18726;44.732;10.550;2023-04-08T00:07:58;101089.09;;;10.39;100.00
32237;BME280;18726;44.732;10.550;2023-04-08T00:11:01;101091.47;;;10.40;100.00
32237;BME280;18726;44.732;10.550;2023-04-08T00:14:05;101090.09;;;10.34;100.00
32237;BME280;18726;44.732;10.550;2023-04-08T00:17:08;101085.94;;;10.37;100.00
32237;BME280;18726;44.732;10.550;2023-04-08T00:20:12;101091.44;;;10.28;100.00
32237;BME280;18726;44.732;10.550;2023-04-08T00:23:15;101091.75;;;10.27;100.00
32237;BME280;18726;44.732;10.550;2023-04-08T00:26:19;101097.72;;;10.20;100.00
32237;BME280;18726;44.732;10.550;2023-04-08T00:29:22;101092.22;;;10.29;100.00
32237;BME280;18726;44.732;10.550;2023-04-08T00:32:26;101095.75;;;10.29;100.00
32237;BME280;18726;44.732;10.550;2023-04-08T00:35:30;101095.19;;;10.36;100.00
32237;BME280;18726;44.732;10.550;2023-04-08T00:38:33;101090.50;;;10.57;100.00
32237;BME280;18726;44.732;10.550;2023-04-08T00:41:37;101086.66;;;10.58;100.00
32237;BME280;18726;44.732;10.550;2023-04-08T00:44:40;101089.84;;;10.60;100.00
32237;BME280;18726;44.732;10.550;2023-04-08T00:47:43;101079.44;;;10.74;100.00
32237;BME280;18726;44.732;10.550;2023-04-08T00:50:47;101081.47;;;10.77;100.00
32237;BME280;18726;44.732;10.550;2023-04-08T00:53:50;101092.56;;;10.72;100.00
32237;BME280;18726;44.732;10.550;2023-04-08T00:56:54;101098.84;;;10.52;100.00
32237;BME280;18726;44.732;10.550;2023-04-08T00:59:57;101091.44;;;10.28;100.00
32237;BME280;18726;44.732;10.550;2023-04-08T01:03:07;101095.47;;;10.22;100.00
32237;BME280;18726;44.732;10.550;2023-04-08T01:06:31;101096.94;;;10.20;100.00
32237;BME280;18726;44.732;10.550;2023-04-08T01:09:42;101091.31;;;10.04;100.00
32237;BME280;18726;44.732;10.550;2023-04-08T01:12:53;101092.69;;;9.89;100.00
32237;BME280;18726;44.732;10.550;2023-04-08T01:15:57;101093.88;;;10.00;100.00
32237;BME280;18726;44.732;10.550;2023-04-08T01:19:00;101096.59;;;10.21;100.00
32237;BME280;18726;44.732;10.550;2023-04-08T01:22:26;101092.81;;;10.34;100.00
32237;BME280;18726;44.732;10.550;2023-04-08T01:25:33;101091.50;;;10.53;100.00
32237;BME280;18726;44.732;10.550;2023-04-08T01:28:37;101093.22;;;10.69;100.00
32237;BME280;18726;44.732;10.550;2023-04-08T01:31:41;101077.63;;;10.78;100.00
32237;BME280;18726;44.732;10.550;2023-04-08T01:34:45;101083.75;;;10.88;100.00
32237;BME280;18726;44.732;10.550;2023-04-08T01:37:49;101083.66;;;10.84;100.00
32237;BME280;18726;44.732;10.550;2023-04-08T01:40:53;101086.94;;;10.44;100.00
32237;BME280;18726;44.732;10.550;2023-04-08T01:43:58;101085.44;;;10.14;100.00
32237;BME280;18726;44.732;10.550;2023-04-08T01:47:02;101080.50;;;9.95;100.00
32237;BME280;18726;44.732;10.550;2023-04-08T01:50:06;101088.81;;;10.11;100.00
32237;BME280;18726;44.732;10.550;2023-04-08T01:53:11;101080.91;;;10.27;100.00
32237;BME280;18726;44.732;10.550;2023-04-08T01:56:14;101081.28;;;10.37;100.00
32237;BME280;18726;44.732;10.550;2023-04-08T01:59:19;101074.34;;;10.28;100.00
32237;BME280;18726;44.732;10.550;2023-04-08T02:02:23;101078.66;;;10.29;100.00
32237;BME280;18726;44.732;10.550;2023-04-08T02:05:28;101075.28;;;10.32;100.00
32237;BME280;18726;44.732;10.550;2023-04-08T02:08:32;101072.31;;;10.25;100.00
32237;BME280;18726;44.732;10.550;2023-04-08T02:11:36;101078.00;;;10.32;100.00
32237;BME280;18726;44.732;10.550;2023-04-08T02:14:39;101069.06;;;10.43;100.00
32237;BME280;18726;44.732;10.550;2023-04-08T02:20:48;101063.88;;;10.51;100.00
32237;BME280;18726;44.732;10.550;2023-04-08T02:23:52;101080.97;;;10.51;100.00
32237;BME280;18726;44.732;10.550;2023-04-08T02:26:56;101079.19;;;10.55;100.00
32237;BME280;18726;44.732;10.550;2023-04-08T02:30:02;101070.47;;;10.62;100.00
32237;BME280;18726;44.732;10.550;2023-04-08T02:33:07;101067.44;;;10.63;100.00
32237;BME280;18726;44.732;10.550;2023-04-08T02:36:11;101075.53;;;10.51;100.00
32237;BME280;18726;44.732;10.550;2023-04-08T02:39:15;101067.25;;;10.35;100.00
32237;BME280;18726;44.732;10.550;2023-04-08T02:42:19;101065.94;;;10.21;100.00
32237;BME280;18726;44.732;10.550;2023-04-08T02:45:30;101061.59;;;10.07;100.00
32237;BME280;18726;44.732;10.550;2023-04-08T02:48:34;101064.03;;;10.00;100.00
32237;BME280;18726;44.732;10.550;2023-04-08T02:51:37;101056.28;;;9.90;100.00
32237;BME280;18726;44.732;10.550;2023-04-08T02:54:40;101067.81;;;9.87;100.00
32237;BME280;18726;44.732;10.550;2023-04-08T02:57:45;101065.28;;;9.82;100.00
32237;BME280;18726;44.732;10.550;2023-04-08T03:00:49;101059.47;;;9.92;100.00
32237;BME280;18726;44.732;10.550;2023-04-08T03:03:52;101063.09;;;9.96;100.00
32237;BME280;18726;44.732;10.550;2023-04-08T03:06:56;101054.34;;;10.11;100.00
32237;BME280;18726;44.732;10.550;2023-04-08T03:10:00;101058.75;;;10.04;100.00
32237;BME280;18726;44.732;10.550;2023-04-08T03:13:04;101062.56;;;10.03;100.00
32237;BME280;18726;44.732;10.550;2023-04-08T03:16:07;101053.09;;;10.09;100.00
32237;BME280;18726;44.732;10.550;2023-04-08T03:19:10;101068.94;;;10.07;100.00
32237;BME280;18726;44.732;10.550;2023-04-08T03:22:13;101072.84;;;9.97;100.00
32237;BME280;18726;44.732;10.550;2023-04-08T03:25:17;101076.75;;;9.88;100.00
32237;BME280;18726;44.732;10.550;2023-04-08T03:28:21;101086.59;;;9.71;100.00
32237;BME280;18726;44.732;10.550;2023-04-08T03:31:24;101093.22;;;9.62;100.00
32237;BME280;18726;44.732;10.550;2023-04-08T03:34:28;101094.81;;;9.63;100.00
32237;BME280;18726;44.732;10.550;2023-04-08T03:37:31;101095.00;;;9.58;100.00
32237;BME280;18726;44.732;10.550;2023-04-08T03:40:34;101098.56;;;9.50;100.00
32237;BME280;18726;44.732;10.550;2023-04-08T03:43:38;101101.53;;;9.57;100.00
32237;BME280;18726;44.732;10.550;2023-04-08T03:46:41;101105.38;;;9.56;100.00
32237;BME280;18726;44.732;10.550;2023-04-08T03:49:44;101119.94;;;9.51;100.00
32237;BME280;18726;44.732;10.550;2023-04-08T03:52:48;101116.94;;;9.44;100.00
32237;BME280;18726;44.732;10.550;2023-04-08T03:55:51;101123.53;;;9.34;100.00
32237;BME280;18726;44.732;10.550;2023-04-08T03:58:54;101128.19;;;9.25;100.00
32237;BME280;18726;44.732;10.550;2023-04-08T04:01:57;101136.41;;;9.08;100.00
32237;BME280;18726;44.732;10.550;2023-04-08T04:05:01;101132.97;;;8.90;100.00
32237;BME280;18726;44.732;10.550;2023-04-08T04:08:04;101133.22;;;8.97;100.00
32237;BME280;18726;44.732;10.550;2023-04-08T04:11:08;101128.91;;;9.43;100.00
32237;BME280;18726;44.732;10.550;2023-04-08T04:14:11;101122.69;;;9.42;100.00
32237;BME280;18726;44.732;10.550;2023-04-08T04:17:15;101126.16;;;9.52;100.00
32237;BME280;18726;44.732;10.550;2023-04-08T04:20:18;101134.28;;;9.52;100.00
32237;BME280;18726;44.732;10.550;2023-04-08T04:23:22;101132.22;;;9.48;100.00
32237;BME280;18726;44.732;10.550;2023-04-08T04:26:27;101141.75;;;9.55;100.00
32237;BME280;18726;44.732;10.550;2023-04-08T04:29:31;101130.09;;;9.54;100.00
32237;BME280;18726;44.732;10.550;2023-04-08T04:32:34;101137.72;;;9.31;100.00
32237;BME280;18726;44.732;10.550;2023-04-08T04:35:38;101140.75;;;9.30;100.00
32237;BME280;18726;44.732;10.550;2023-04-08T04:38:41;101145.72;;;9.28;100.00
32237;BME280;18726;44.732;10.550;2023-04-08T04:41:45;101139.47;;;9.36;100.00
32237;BME280;18726;44.732;10.550;2023-04-08T04:44:50;101153.53;;;9.29;100.00
32237;BME280;18726;44.732;10.550;2023-04-08T04:47:54;101152.41;;;9.30;100.00
32237;BME280;18726;44.732;10.550;2023-04-08T04:50:57;101148.28;;;9.24;100.00
32237;BME280;18726;44.732;10.550;2023-04-08T04:54:01;101137.44;;;9.54;100.00
32237;BME280;18726;44.732;10.550;2023-04-08T04:57:04;101146.81;;;9.65;100.00
32237;BME280;18726;44.732;10.550;2023-04-08T05:00:08;101150.72;;;9.76;100.00
32237;BME280;18726;44.732;10.550;2023-04-08T05:03:12;101160.06;;;9.58;100.00
32237;BME280;18726;44.732;10.550;2023-04-08T05:06:15;101163.00;;;9.53;100.00
32237;BME280;18726;44.732;10.550;2023-04-08T05:09:19;101167.00;;;9.76;100.00
32237;BME280;18726;44.732;10.550;2023-04-08T05:12:23;101172.56;;;10.30;100.00
32237;BME280;18726;44.732;10.550;2023-04-08T05:15:26;101163.28;;;10.97;100.00
32237;BME280;18726;44.732;10.550;2023-04-08T05:18:29;101172.59;;;11.57;100.00
32237;BME280;18726;44.732;10.550;2023-04-08T05:21:33;101173.91;;;12.24;100.00
32237;BME280;18726;44.732;10.550;2023-04-08T05:24:36;101187.09;;;12.49;100.00
32237;BME280;18726;44.732;10.550;2023-04-08T05:27:39;101187.03;;;12.34;100.00
32237;BME280;18726;44.732;10.550;2023-04-08T05:30:47;101187.38;;;12.88;100.00
32237;BME280;18726;44.732;10.550;2023-04-08T05:33:50;101186.28;;;13.87;100.00
32237;BME280;18726;44.732;10.550;2023-04-08T05:36:54;101185.53;;;14.60;100.00
32237;BME280;18726;44.732;10.550;2023-04-08T05:39:57;101190.25;;;15.51;100.00
32237;BME280;18726;44.732;10.550;2023-04-08T05:43:00;101197.03;;;16.10;100.00
32237;BME280;18726;44.732;10.550;2023-04-08T05:46:07;101205.31;;;16.77;87.82
32237;BME280;18726;44.732;10.550;2023-04-08T05:49:11;101205.38;;;17.69;82.44
32237;BME280;18726;44.732;10.550;2023-04-08T05:52:14;101209.69;;;18.32;73.58
32237;BME280;18726;44.732;10.550;2023-04-08T05:55:18;101206.75;;;18.90;73.46
32237;BME280;18726;44.732;10.550;2023-04-08T05:58:21;101206.03;;;19.78;69.93
32237;BME280;18726;44.732;10.550;2023-04-08T06:01:25;101205.47;;;20.37;65.44
32237;BME280;18726;44.732;10.550;2023-04-08T06:04:28;101218.66;;;21.50;64.13
32237;BME280;18726;44.732;10.550;2023-04-08T06:07:33;101219.44;;;22.30;56.41
32237;BME280;18726;44.732;10.550;2023-04-08T06:10:36;101225.00;;;22.90;52.86
32237;BME280;18726;44.732;10.550;2023-04-08T06:13:39;101222.63;;;23.43;51.92
32237;BME280;18726;44.732;10.550;2023-04-08T06:16:44;101227.41;;;23.89;46.32
32237;BME280;18726;44.732;10.550;2023-04-08T06:19:47;101226.50;;;24.55;45.59
32237;BME280;18726;44.732;10.550;2023-04-08T06:22:51;101235.47;;;25.35;45.20
32237;BME280;18726;44.732;10.550;2023-04-08T06:25:54;101226.13;;;25.90;41.31
32237;BME280;18726;44.732;10.550;2023-04-08T06:28:58;101225.34;;;26.18;42.06
32237;BME280;18726;44.732;10.550;2023-04-08T06:32:01;101233.06;;;26.94;40.86
32237;BME280;18726;44.732;10.550;2023-04-08T06:35:04;101227.56;;;27.54;39.80
32237;BME280;18726;44.732;10.550;2023-04-08T06:38:08;101227.41;;;27.83;39.99
32237;BME280;18726;44.732;10.550;2023-04-08T06:41:11;101218.78;;;25.35;40.12
32237;BME280;18726;44.732;10.550;2023-04-08T06:44:15;101226.28;;;24.66;42.92
32237;BME280;18726;44.732;10.550;2023-04-08T06:47:18;101233.22;;;27.29;39.83
32237;BME280;18726;44.732;10.550;2023-04-08T06:50:21;101240.69;;;28.13;36.50
32237;BME280;18726;44.732;10.550;2023-04-08T06:53:25;101235.72;;;28.52;36.68
32237;BME280;18726;44.732;10.550;2023-04-08T06:56:30;101241.00;;;29.21;36.99
32237;BME280;18726;44.732;10.550;2023-04-08T06:59:33;101233.78;;;29.02;35.66
32237;BME280;18726;44.732;10.550;2023-04-08T07:02:36;101235.19;;;29.55;37.44
32237;BME280;18726;44.732;10.550;2023-04-08T07:05:39;101242.34;;;30.66;34.72
32237;BME280;18726;44.732;10.550;2023-04-08T07:08:44;101241.66;;;31.94;32.78
32237;BME280;18726;44.732;10.550;2023-04-08T07:11:47;101243.38;;;32.45;32.57
32237;BME280;18726;44.732;10.550;2023-04-08T07:14:51;101236.84;;;32.98;31.28
32237;BME280;18726;44.732;10.550;2023-04-08T07:17:55;101236.16;;;33.03;31.32
32237;BME280;18726;44.732;10.550;2023-04-08T07:20:59;101241.00;;;34.18;30.19
32237;BME280;18726;44.732;10.550;2023-04-08T07:24:03;101241.50;;;34.74;29.07
32237;BME280;18726;44.732;10.550;2023-04-08T07:27:07;101237.25;;;35.27;28.56
32237;BME280;18726;44.732;10.550;2023-04-08T07:30:10;101247.47;;;36.32;26.79
32237;BME280;18726;44.732;10.550;2023-04-08T07:33:14;101247.97;;;37.20;27.09
32237;BME280;18726;44.732;10.550;2023-04-08T07:36:18;101249.72;;;37.29;25.92
32237;BME280;18726;44.732;10.550;2023-04-08T07:39:21;101249.25;;;36.30;25.89
32237;BME280;18726;44.732;10.550;2023-04-08T07:42:24;101240.19;;;35.38;27.03
32237;BME280;18726;44.732;10.550;2023-04-08T07:45:28;101240.91;;;35.33;27.56
32237;BME280;18726;44.732;10.550;2023-04-08T07:48:31;101243.91;;;35.24;27.02
32237;BME280;18726;44.732;10.550;2023-04-08T07:51:35;101237.94;;;34.22;29.25
32237;BME280;18726;44.732;10.550;2023-04-08T07:54:38;101240.75;;;36.41;27.54
32237;BME280;18726;44.732;10.550;2023-04-08T07:57:41;101243.28;;;36.16;26.44
32237;BME280;18726;44.732;10.550;2023-04-08T08:00:45;101252.34;;;36.99;25.57
32237;BME280;18726;44.732;10.550;2023-04-08T08:03:49;101252.91;;;37.77;25.94
32237;BME280;18726;44.732;10.550;2023-04-08T08:06:53;101243.13;;;38.55;24.90
32237;BME280;18726;44.732;10.550;2023-04-08T08:09:56;101245.38;;;40.03;23.05
32237;BME280;18726;44.732;10.550;2023-04-08T08:13:00;101241.88;;;40.29;23.43
32237;BME280;18726;44.732;10.550;2023-04-08T08:16:03;101246.44;;;40.83;22.49
32237;BME280;18726;44.732;10.550;2023-04-08T08:19:10;101249.03;;;41.26;22.64
32237;BME280;18726;44.732;10.550;2023-04-08T08:22:16;101243.63;;;41.48;22.41
32237;BME280;18726;44.732;10.550;2023-04-08T08:25:19;101245.06;;;42.02;21.12
32237;BME280;18726;44.732;10.550;2023-04-08T08:28:22;101244.63;;;42.53;20.79
32237;BME280;18726;44.732;10.550;2023-04-08T08:31:26;101249.50;;;42.45;21.31
32237;BME280;18726;44.732;10.550;2023-04-08T08:34:29;101251.22;;;41.93;21.78
32237;BME280;18726;44.732;10.550;2023-04-08T08:37:32;101251.66;;;41.97;21.51
32237;BME280;18726;44.732;10.550;2023-04-08T08:40:36;101258.69;;;42.72;20.51
32237;BME280;18726;44.732;10.550;2023-04-08T08:43:39;101249.78;;;41.00;21.67
32237;BME280;18726;44.732;10.550;2023-04-08T08:46:43;101246.13;;;40.41;22.65
32237;BME280;18726;44.732;10.550;2023-04-08T08:49:46;101249.94;;;39.93;22.53
32237;BME280;18726;44.732;10.550;2023-04-08T08:52:50;101243.53;;;38.70;22.61
32237;BME280;18726;44.732;10.550;2023-04-08T08:55:54;101236.28;;;37.98;24.36
32237;BME280;18726;44.732;10.550;2023-04-08T08:58:57;101238.25;;;37.73;23.81
32237;BME280;18726;44.732;10.550;2023-04-08T09:02:01;101231.97;;;37.17;24.70
32237;BME280;18726;44.732;10.550;2023-04-08T09:05:04;101231.25;;;36.66;26.09
32237;BME280;18726;44.732;10.550;2023-04-08T09:08:16;101223.25;;;35.44;27.79
32237;BME280;18726;44.732;10.550;2023-04-08T09:11:25;101218.63;;;35.04;27.76
32237;BME280;18726;44.732;10.550;2023-04-08T09:14:28;101220.47;;;34.18;28.62
32237;BME280;18726;44.732;10.550;2023-04-08T09:17:36;101217.00;;;34.03;28.05
32237;BME280;18726;44.732;10.550;2023-04-08T09:20:50;101210.53;;;33.36;28.45
32237;BME280;18726;44.732;10.550;2023-04-08T09:23:54;101207.78;;;33.82;28.52
32237;BME280;18726;44.732;10.550;2023-04-08T09:26:57;101212.16;;;33.63;28.42
32237;BME280;18726;44.732;10.550;2023-04-08T09:30:13;101212.63;;;32.71;29.47
32237;BME280;18726;44.732;10.550;2023-04-08T09:33:16;101197.47;;;32.68;28.96
32237;BME280;18726;44.732;10.550;2023-04-08T09:36:19;101203.63;;;33.02;29.64
32237;BME280;18726;44.732;10.550;2023-04-08T09:39:23;101212.28;;;32.34;28.46
32237;BME280;18726;44.732;10.550;2023-04-08T09:42:26;101205.06;;;32.77;28.03
32237;BME280;18726;44.732;10.550;2023-04-08T09:45:29;101204.41;;;30.29;28.47
32237;BME280;18726;44.732;10.550;2023-04-08T09:48:38;101204.56;;;30.85;31.31
32237;BME280;18726;44.732;10.550;2023-04-08T09:55:07;101207.78;;;31.50;30.50
32237;BME280;18726;44.732;10.550;2023-04-08T09:58:14;101201.34;;;31.97;29.07
32237;BME280;18726;44.732;10.550;2023-04-08T10:01:42;101204.84;;;31.20;31.54
32237;BME280;18726;44.732;10.550;2023-04-08T10:04:44;101196.25;;;31.48;30.47
32237;BME280;18726;44.732;10.550;2023-04-08T10:07:51;101204.72;;;31.63;31.05
32237;BME280;18726;44.732;10.550;2023-04-08T10:15:20;101190.81;;;25.87;31.65
32237;BME280;18726;44.732;10.550;2023-04-08T10:21:32;101181.84;;;25.96;32.37
32237;BME280;18726;44.732;10.550;2023-04-08T10:24:35;101181.63;;;26.03;31.82
32237;BME280;18726;44.732;10.550;2023-04-08T10:27:39;101178.00;;;26.18;32.54
32237;BME280;18726;44.732;10.550;2023-04-08T10:30:48;101180.78;;;26.98;34.50
32237;BME280;18726;44.732;10.550;2023-04-08T10:33:52;101187.16;;;27.46;32.11
32237;BME280;18726;44.732;10.550;2023-04-08T10:36:55;101184.09;;;26.93;33.48
32237;BME280;18726;44.732;10.550;2023-04-08T10:40:03;101173.97;;;27.72;35.13
32237;BME280;18726;44.732;10.550;2023-04-08T10:43:07;101179.75;;;27.99;31.93
32237;BME280;18726;44.732;10.550;2023-04-08T10:46:10;101182.22;;;27.97;30.61
32237;BME280;18726;44.732;10.550;2023-04-08T10:49:14;101180.63;;;27.27;34.69
32237;BME280;18726;44.732;10.550;2023-04-08T10:52:18;101172.19;;;25.84;31.72
32237;BME280;18726;44.732;10.550;2023-04-08T10:55:24;101181.63;;;26.44;36.42
32237;BME280;18726;44.732;10.550;2023-04-08T10:58:28;101179.53;;;26.86;32.36
32237;BME280;18726;44.732;10.550;2023-04-08T11:01:38;101176.72;;;25.78;29.55
32237;BME280;18726;44.732;10.550;2023-04-08T11:04:42;101171.25;;;23.81;30.93
32237;BME280;18726;44.732;10.550;2023-04-08T11:07:46;101167.47;;;23.72;31.78
32237;BME280;18726;44.732;10.550;2023-04-08T11:10:50;101169.44;;;24.70;33.54
32237;BME280;18726;44.732;10.550;2023-04-08T11:13:53;101163.66;;;24.05;36.62
32237;BME280;18726;44.732;10.550;2023-04-08T11:16:59;101156.94;;;23.83;34.49
32237;BME280;18726;44.732;10.550;2023-04-08T11:20:03;101160.94;;;24.21;32.70
32237;BME280;18726;44.732;10.550;2023-04-08T11:23:14;101160.59;;;24.75;32.65
32237;BME280;18726;44.732;10.550;2023-04-08T11:26:18;101153.31;;;25.30;30.70
32237;BME280;18726;44.732;10.550;2023-04-08T11:29:21;101151.13;;;21.89;33.31
32237;BME280;18726;44.732;10.550;2023-04-08T11:32:25;101146.84;;;21.40;35.80
32237;BME280;18726;44.732;10.550;2023-04-08T11:35:31;101142.47;;;20.98;34.35
32237;BME280;18726;44.732;10.550;2023-04-08T11:38:34;101140.88;;;21.86;35.37
32237;BME280;18726;44.732;10.550;2023-04-08T11:41:41;101137.69;;;23.29;37.91
32237;BME280;18726;44.732;10.550;2023-04-08T11:44:45;101136.81;;;23.99;34.20
32237;BME280;18726;44.732;10.550;2023-04-08T11:47:48;101136.78;;;24.74;37.03
32237;BME280;18726;44.732;10.550;2023-04-08T11:51:12;101134.31;;;24.44;31.92
32237;BME280;18726;44.732;10.550;2023-04-08T11:54:31;101134.06;;;25.07;35.09
32237;BME280;18726;44.732;10.550;2023-04-08T11:57:35;101127.84;;;23.71;32.23
32237;BME280;18726;44.732;10.550;2023-04-08T12:00:39;101131.94;;;22.39;34.15
32237;BME280;18726;44.732;10.550;2023-04-08T12:03:55;101123.13;;;21.42;35.98
32237;BME280;18726;44.732;10.550;2023-04-08T12:06:59;101122.13;;;20.70;34.99
32237;BME280;18726;44.732;10.550;2023-04-08T12:10:02;101117.03;;;21.20;36.54
32237;BME280;18726;44.732;10.550;2023-04-08T12:13:06;101117.09;;;21.10;35.28
32237;BME280;18726;44.732;10.550;2023-04-08T12:16:09;101116.06;;;21.38;34.34
32237;BME280;18726;44.732;10.550;2023-04-08T12:19:12;101111.75;;;21.74;35.13
32237;BME280;18726;44.732;10.550;2023-04-08T12:22:16;101101.75;;;22.75;40.58
32237;BME280;18726;44.732;10.550;2023-04-08T12:25:19;101108.22;;;23.82;37.41
32237;BME280;18726;44.732;10.550;2023-04-08T12:28:23;101105.44;;;22.92;33.66
32237;BME280;18726;44.732;10.550;2023-04-08T12:31:26;101099.81;;;23.42;38.12
32237;BME280;18726;44.732;10.550;2023-04-08T12:34:30;101103.16;;;22.87;34.14
32237;BME280;18726;44.732;10.550;2023-04-08T12:37:34;101098.75;;;22.05;34.93
32237;BME280;18726;44.732;10.550;2023-04-08T12:40:38;101094.31;;;22.42;37.55
32237;BME280;18726;44.732;10.550;2023-04-08T12:43:42;101089.75;;;21.26;34.54
32237;BME280;18726;44.732;10.550;2023-04-08T12:46:45;101083.78;;;21.31;35.27
32237;BME280;18726;44.732;10.550;2023-04-08T12:49:48;101084.13;;;21.71;37.86
32237;BME280;18726;44.732;10.550;2023-04-08T12:52:51;101086.13;;;20.84;35.42
32237;BME280;18726;44.732;10.550;2023-04-08T12:55:55;101086.53;;;21.69;35.81
32237;BME280;18726;44.732;10.550;2023-04-08T12:58:59;101079.91;;;22.54;39.60
32237;BME280;18726;44.732;10.550;2023-04-08T13:02:03;101079.66;;;21.46;33.58
32237;BME280;18726;44.732;10.550;2023-04-08T13:05:06;101072.25;;;21.74;37.04
32237;BME280;18726;44.732;10.550;2023-04-08T13:08:10;101076.38;;;20.73;35.53
32237;BME280;18726;44.732;10.550;2023-04-08T13:11:17;101074.28;;;20.21;35.14
32237;BME280;18726;44.732;10.550;2023-04-08T13:14:20;101066.06;;;20.18;37.15
32237;BME280;18726;44.732;10.550;2023-04-08T13:17:24;101075.16;;;20.77;38.40
32237;BME280;18726;44.732;10.550;2023-04-08T13:20:27;101076.38;;;21.21;35.57
32237;BME280;18726;44.732;10.550;2023-04-08T13:23:30;101070.06;;;20.72;35.42
32237;BME280;18726;44.732;10.550;2023-04-08T13:26:34;101065.88;;;20.50;36.71
32237;BME280;18726;44.732;10.550;2023-04-08T13:29:37;101061.50;;;20.52;36.36
32237;BME280;18726;44.732;10.550;2023-04-08T13:32:41;101057.19;;;19.64;36.04
32237;BME280;18726;44.732;10.550;2023-04-08T13:35:44;101049.38;;;19.52;36.56
32237;BME280;18726;44.732;10.550;2023-04-08T13:38:47;101049.94;;;20.09;37.58
32237;BME280;18726;44.732;10.550;2023-04-08T13:41:51;101046.63;;;20.36;38.55
32237;BME280;18726;44.732;10.550;2023-04-08T13:44:54;101050.72;;;21.20;39.62
32237;BME280;18726;44.732;10.550;2023-04-08T13:47:58;101045.31;;;19.92;36.53
32237;BME280;18726;44.732;10.550;2023-04-08T13:51:02;101046.63;;;20.36;37.91
32237;BME280;18726;44.732;10.550;2023-04-08T13:54:05;101043.66;;;20.05;35.81
32237;BME280;18726;44.732;10.550;2023-04-08T13:57:09;101048.94;;;19.68;36.99
32237;BME280;18726;44.732;10.550;2023-04-08T14:00:12;101041.16;;;19.20;34.86
32237;BME280;18726;44.732;10.550;2023-04-08T14:03:17;101047.34;;;19.67;36.32
32237;BME280;18726;44.732;10.550;2023-04-08T14:06:21;101050.19;;;20.33;38.93
32237;BME280;18726;44.732;10.550;2023-04-08T14:09:24;101036.66;;;20.56;37.61
32237;BME280;18726;44.732;10.550;2023-04-08T14:12:28;101047.22;;;20.68;36.70
32237;BME280;18726;44.732;10.550;2023-04-08T14:15:31;101026.03;;;19.85;37.15
32237;BME280;18726;44.732;10.550;2023-04-08T14:18:35;101030.47;;;19.47;38.09
32237;BME280;18726;44.732;10.550;2023-04-08T14:21:38;101022.63;;;19.35;38.66
32237;BME280;18726;44.732;10.550;2023-04-08T14:24:41;101023.28;;;19.85;40.05
32237;BME280;18726;44.732;10.550;2023-04-08T14:27:45;101023.00;;;19.54;38.88
32237;BME280;18726;44.732;10.550;2023-04-08T14:30:49;101025.03;;;19.08;38.17
32237;BME280;18726;44.732;10.550;2023-04-08T14:33:53;101027.00;;;19.11;38.32
32237;BME280;18726;44.732;10.550;2023-04-08T14:36:56;101033.69;;;19.17;37.77
32237;BME280;18726;44.732;10.550;2023-04-08T14:39:59;101029.69;;;19.39;39.93
32237;BME280;18726;44.732;10.550;2023-04-08T14:43:03;101034.03;;;19.40;40.72
32237;BME280;18726;44.732;10.550;2023-04-08T14:46:06;101026.22;;;19.10;38.28
32237;BME280;18726;44.732;10.550;2023-04-08T14:49:09;101030.94;;;19.10;39.27
32237;BME280;18726;44.732;10.550;2023-04-08T14:52:13;101033.72;;;19.03;38.05
32237;BME280;18726;44.732;10.550;2023-04-08T14:55:16;101031.38;;;18.98;38.12
32237;BME280;18726;44.732;10.550;2023-04-08T14:58:20;101025.03;;;19.22;39.35
32237;BME280;18726;44.732;10.550;2023-04-08T15:01:23;101027.31;;;19.41;39.62
32237;BME280;18726;44.732;10.550;2023-04-08T15:04:26;101026.25;;;19.03;40.92
32237;BME280;18726;44.732;10.550;2023-04-08T15:07:29;101030.56;;;18.62;42.24
32237;BME280;18726;44.732;10.550;2023-04-08T15:10:33;101029.00;;;18.85;42.11
32237;BME280;18726;44.732;10.550;2023-04-08T15:13:37;101022.72;;;18.88;39.18
32237;BME280;18726;44.732;10.550;2023-04-08T15:16:41;101028.56;;;19.33;39.83
32237;BME280;18726;44.732;10.550;2023-04-08T15:19:44;101024.97;;;19.50;39.05
32237;BME280;18726;44.732;10.550;2023-04-08T15:22:48;101030.28;;;19.97;40.23
32237;BME280;18726;44.732;10.550;2023-04-08T15:25:51;101033.50;;;19.88;39.13
32237;BME280;18726;44.732;10.550;2023-04-08T15:28:54;101036.00;;;19.54;39.46
32237;BME280;18726;44.732;10.550;2023-04-08T15:32:01;101028.81;;;19.78;38.90
32237;BME280;18726;44.732;10.550;2023-04-08T15:35:04;101029.41;;;19.02;41.72
32237;BME280;18726;44.732;10.550;2023-04-08T15:38:08;101029.78;;;18.93;40.60
32237;BME280;18726;44.732;10.550;2023-04-08T15:41:18;101025.03;;;19.08;40.42
32237;BME280;18726;44.732;10.550;2023-04-08T15:44:22;101024.69;;;18.88;40.83
32237;BME280;18726;44.732;10.550;2023-04-08T15:47:28;101036.88;;;18.83;41.88
32237;BME280;18726;44.732;10.550;2023-04-08T15:50:31;101033.34;;;18.65;44.83
32237;BME280;18726;44.732;10.550;2023-04-08T15:53:35;101034.47;;;18.57;46.26
32237;BME280;18726;44.732;10.550;2023-04-08T15:56:39;101036.84;;;18.44;44.52
32237;BME280;18726;44.732;10.550;2023-04-08T15:59:42;101037.63;;;18.45;46.37
32237;BME280;18726;44.732;10.550;2023-04-08T16:02:46;101044.69;;;18.49;45.02